Time,TemperatureF,DewpointF,PressureIn,WindDirection,WindDirectionDegrees,WindSpeedMPH,WindSpeedGustMPH,Humidity,HourlyPrecipIn,Conditions,Clouds,dailyrainin,SoftwareType,DateUTC
2013-06-26 00:01:00,69.5,63.7,29.95,SSW,203,0.7,1.3,82,0.14,,,0.00,WUHU216HW,2013-06-26 04:01:00,
2013-06-26 00:02:00,69.5,63.4,29.95,NNW,338,1.3,1.3,81,0.15,,,0.00,WUHU216HW,2013-06-26 04:02:00,
2013-06-26 00:07:00,69.1,63.4,29.96,NNW,338,0.4,1.8,82,0.16,,,0.02,WUHU216HW,2013-06-26 04:07:00,
2013-06-26 00:12:00,68.9,63.2,29.96,South,180,0.2,1.8,82,0.15,,,0.04,WUHU216HW,2013-06-26 04:12:00,
2013-06-26 00:17:00,68.9,63.2,29.95,NW,315,0.0,1.1,82,0.16,,,0.07,WUHU216HW,2013-06-26 04:17:00,
2013-06-26 00:22:00,68.8,63.1,29.95,NNW,338,0.4,1.6,82,0.16,,,0.07,WUHU216HW,2013-06-26 04:22:00,
2013-06-26 00:27:00,68.6,62.9,29.94,WSW,248,0.4,1.8,82,0.17,,,0.09,WUHU216HW,2013-06-26 04:27:00,
2013-06-26 00:32:00,68.4,62.7,29.94,WSW,248,0.7,1.8,82,0.18,,,0.12,WUHU216HW,2013-06-26 04:32:00,
2013-06-26 00:37:00,68.2,62.6,29.94,West,270,0.4,1.6,82,0.19,,,0.14,WUHU216HW,2013-06-26 04:37:00,
2013-06-26 00:42:00,68.2,62.6,29.94,SW,225,0.7,1.3,82,0.21,,,0.16,WUHU216HW,2013-06-26 04:42:00,
2013-06-26 00:47:00,68.0,62.4,29.92,NNE,23,1.3,1.3,82,0.20,,,0.16,WUHU216HW,2013-06-26 04:47:00,
2013-06-26 00:52:00,67.9,62.2,29.91,SW,225,0.9,1.3,82,0.19,,,0.16,WUHU216HW,2013-06-26 04:52:00,
2013-06-26 00:57:00,67.9,62.2,29.91,SW,225,0.4,1.3,82,0.17,,,0.18,WUHU216HW,2013-06-26 04:57:00,
2013-06-26 01:02:00,67.7,62.0,29.92,NW,315,0.0,0.9,82,0.16,,,0.18,WUHU216HW,2013-06-26 05:02:00,
2013-06-26 01:07:00,67.7,62.0,29.93,WSW,248,0.0,0.4,82,0.15,,,0.19,WUHU216HW,2013-06-26 05:07:00,
2013-06-26 01:12:00,67.7,62.0,29.92,SSW,203,0.0,0.4,82,0.12,,,0.19,WUHU216HW,2013-06-26 05:12:00,
2013-06-26 01:17:00,67.7,62.0,29.91,South,180,1.1,1.1,82,0.12,,,0.20,WUHU216HW,2013-06-26 05:17:00,
2013-06-26 01:22:00,67.5,61.8,29.91,WNW,293,0.2,1.1,82,0.11,,,0.20,WUHU216HW,2013-06-26 05:22:00,
2013-06-26 01:27:00,67.5,61.8,29.90,WSW,248,0.7,0.7,82,0.09,,,0.20,WUHU216HW,2013-06-26 05:27:00,
2013-06-26 01:32:00,67.5,61.8,29.89,SW,225,0.0,0.7,82,0.05,,,0.20,WUHU216HW,2013-06-26 05:32:00,
2013-06-26 01:37:00,67.5,61.8,29.88,West,270,0.0,0.4,82,0.05,,,0.20,WUHU216HW,2013-06-26 05:37:00,
2013-06-26 01:42:00,67.5,61.8,29.88,NW,315,1.1,1.3,82,0.04,,,0.21,WUHU216HW,2013-06-26 05:42:00,
2013-06-26 01:47:00,67.5,61.8,29.88,NW,315,0.0,1.3,82,0.04,,,0.21,WUHU216HW,2013-06-26 05:47:00,
2013-06-26 01:52:00,67.3,61.7,29.87,NW,315,0.0,0.9,82,0.04,,,0.21,WUHU216HW,2013-06-26 05:52:00,
2013-06-26 01:57:00,67.3,61.7,29.86,West,270,0.0,0.4,82,0.03,,,0.21,WUHU216HW,2013-06-26 05:57:00,
2013-06-26 02:02:00,67.5,61.8,29.85,NW,315,0.0,0.7,82,0.03,,,0.21,WUHU216HW,2013-06-26 06:02:00,
2013-06-26 02:07:00,67.3,61.7,29.84,South,180,0.0,0.7,82,0.02,,,0.21,WUHU216HW,2013-06-26 06:07:00,
2013-06-26 02:12:00,67.3,61.7,29.83,WNW,293,0.0,0.4,82,0.01,,,0.21,WUHU216HW,2013-06-26 06:12:00,
2013-06-26 02:17:00,67.3,62.0,29.83,WNW,293,0.0,0.4,83,0.02,,,0.21,WUHU216HW,2013-06-26 06:17:00,
2013-06-26 02:22:00,67.3,62.0,29.83,WNW,293,0.0,0.2,83,0.02,,,0.21,WUHU216HW,2013-06-26 06:22:00,
2013-06-26 02:27:00,67.3,62.0,29.83,NNW,338,0.0,0.0,83,0.02,,,0.21,WUHU216HW,2013-06-26 06:27:00,
2013-06-26 02:32:00,67.3,62.0,29.83,NNW,338,0.0,0.0,83,0.02,,,0.21,WUHU216HW,2013-06-26 06:32:00,
2013-06-26 02:37:00,67.3,62.0,29.83,NNW,338,0.0,0.0,83,0.01,,,0.21,WUHU216HW,2013-06-26 06:37:00,
2013-06-26 02:42:00,67.3,62.0,29.83,NNW,338,0.4,0.4,83,0.01,,,0.21,WUHU216HW,2013-06-26 06:42:00,
2013-06-26 02:47:00,67.1,61.8,29.83,NNW,338,0.0,0.4,83,0.01,,,0.21,WUHU216HW,2013-06-26 06:47:00,
2013-06-26 02:52:00,67.3,62.0,29.84,NNW,338,0.0,0.4,83,0.01,,,0.21,WUHU216HW,2013-06-26 06:52:00,
2013-06-26 02:57:00,67.3,62.0,29.84,NNW,338,0.0,0.0,83,0.01,,,0.21,WUHU216HW,2013-06-26 06:57:00,
2013-06-26 03:02:00,67.3,62.0,29.84,NNW,338,0.0,0.0,83,0.01,,,0.21,WUHU216HW,2013-06-26 07:02:00,
2013-06-26 03:07:00,67.1,61.8,29.84,ENE,68,0.4,0.4,83,0.01,,,0.21,WUHU216HW,2013-06-26 07:07:00,
2013-06-26 03:12:00,67.1,61.8,29.84,ENE,68,0.0,0.4,83,0.00,,,0.21,WUHU216HW,2013-06-26 07:12:00,
2013-06-26 03:17:00,67.1,61.8,29.84,ENE,68,0.0,0.0,83,0.00,,,0.21,WUHU216HW,2013-06-26 07:17:00,
2013-06-26 03:22:00,67.1,61.8,29.84,ENE,68,0.0,0.0,83,0.00,,,0.21,WUHU216HW,2013-06-26 07:22:00,
2013-06-26 03:27:00,67.1,61.8,29.83,ENE,68,0.0,0.0,83,0.00,,,0.21,WUHU216HW,2013-06-26 07:27:00,
2013-06-26 03:32:00,67.1,61.8,29.84,ENE,68,0.0,0.0,83,0.00,,,0.21,WUHU216HW,2013-06-26 07:32:00,
2013-06-26 03:37:00,67.0,61.7,29.83,ENE,68,0.0,0.0,83,0.00,,,0.21,WUHU216HW,2013-06-26 07:37:00,
2013-06-26 03:42:00,67.0,61.7,29.84,ENE,68,0.0,0.0,83,0.00,,,0.21,WUHU216HW,2013-06-26 07:42:00,
2013-06-26 03:47:00,66.8,61.5,29.84,ENE,68,0.0,0.0,83,0.00,,,0.21,WUHU216HW,2013-06-26 07:47:00,
2013-06-26 03:52:00,66.8,61.5,29.84,ENE,68,0.0,0.0,83,0.00,,,0.21,WUHU216HW,2013-06-26 07:52:00,
2013-06-26 03:57:00,66.6,61.3,29.84,ENE,68,0.0,0.0,83,0.00,,,0.21,WUHU216HW,2013-06-26 07:57:00,
2013-06-26 04:02:00,66.6,61.3,29.84,ENE,68,0.0,0.0,83,0.00,,,0.21,WUHU216HW,2013-06-26 08:02:00,
2013-06-26 04:07:00,66.6,61.3,29.84,ENE,68,0.0,0.0,83,0.00,,,0.21,WUHU216HW,2013-06-26 08:07:00,
2013-06-26 04:12:00,66.6,61.3,29.85,ENE,68,0.0,0.0,83,0.00,,,0.21,WUHU216HW,2013-06-26 08:12:00,
2013-06-26 04:17:00,66.6,61.3,29.85,ENE,68,0.0,0.0,83,0.00,,,0.21,WUHU216HW,2013-06-26 08:17:00,
2013-06-26 04:22:00,66.6,61.3,29.85,ENE,68,0.0,0.0,83,0.00,,,0.21,WUHU216HW,2013-06-26 08:22:00,
2013-06-26 04:27:00,66.6,61.3,29.85,ENE,68,0.0,0.0,83,0.00,,,0.21,WUHU216HW,2013-06-26 08:27:00,
2013-06-26 04:32:00,66.6,61.3,29.85,ENE,68,0.0,0.0,83,0.00,,,0.21,WUHU216HW,2013-06-26 08:32:00,
2013-06-26 04:37:00,66.6,61.3,29.85,ENE,68,0.0,0.0,83,0.00,,,0.21,WUHU216HW,2013-06-26 08:37:00,
2013-06-26 04:42:00,66.6,61.3,29.86,ENE,68,0.0,0.0,83,0.00,,,0.21,WUHU216HW,2013-06-26 08:42:00,
2013-06-26 04:47:00,66.6,61.3,29.86,ENE,68,0.0,0.0,83,0.00,,,0.21,WUHU216HW,2013-06-26 08:47:00,
2013-06-26 04:52:00,66.6,61.3,29.87,ENE,68,0.0,0.0,83,0.00,,,0.21,WUHU216HW,2013-06-26 08:52:00,
2013-06-26 04:57:00,66.4,61.1,29.87,ENE,68,0.0,0.0,83,0.00,,,0.21,WUHU216HW,2013-06-26 08:57:00,
2013-06-26 05:02:00,66.4,61.1,29.87,ENE,68,0.0,0.0,83,0.00,,,0.21,WUHU216HW,2013-06-26 09:02:00,
2013-06-26 05:07:00,66.2,60.9,29.87,ENE,68,0.0,0.0,83,0.00,,,0.21,WUHU216HW,2013-06-26 09:07:00,
2013-06-26 05:12:00,66.2,60.9,29.87,ENE,68,0.0,0.0,83,0.00,,,0.21,WUHU216HW,2013-06-26 09:12:00,
2013-06-26 05:17:00,66.2,60.9,29.87,ENE,68,0.0,0.0,83,0.00,,,0.21,WUHU216HW,2013-06-26 09:17:00,
2013-06-26 05:22:00,66.2,60.9,29.87,ENE,68,0.0,0.0,83,0.00,,,0.21,WUHU216HW,2013-06-26 09:22:00,
2013-06-26 05:27:00,66.2,60.9,29.87,ENE,68,0.0,0.0,83,0.00,,,0.21,WUHU216HW,2013-06-26 09:27:00,
2013-06-26 05:32:00,66.1,60.8,29.87,ENE,68,0.0,0.4,83,0.00,,,0.21,WUHU216HW,2013-06-26 09:32:00,
2013-06-26 05:37:00,66.1,60.8,29.87,ENE,68,0.0,0.4,83,0.00,,,0.21,WUHU216HW,2013-06-26 09:37:00,
2013-06-26 05:42:00,66.1,60.8,29.87,ENE,68,0.0,0.4,83,0.00,,,0.21,WUHU216HW,2013-06-26 09:42:00,
2013-06-26 05:47:00,66.2,60.9,29.87,ENE,68,0.0,0.4,83,0.00,,,0.21,WUHU216HW,2013-06-26 09:47:00,
2013-06-26 05:52:00,66.2,60.9,29.87,ENE,68,0.0,0.2,83,0.00,,,0.21,WUHU216HW,2013-06-26 09:52:00,
2013-06-26 05:57:00,66.2,60.9,29.88,ENE,68,0.0,0.2,83,0.00,,,0.21,WUHU216HW,2013-06-26 09:57:00,
2013-06-26 06:02:00,66.2,60.9,29.88,ENE,68,0.0,0.0,83,0.00,,,0.21,WUHU216HW,2013-06-26 10:02:00,
2013-06-26 06:07:00,66.2,60.9,29.88,ENE,68,0.0,0.0,83,0.00,,,0.21,WUHU216HW,2013-06-26 10:07:00,
2013-06-26 06:12:00,66.2,60.9,29.88,ENE,68,0.0,0.0,83,0.00,,,0.21,WUHU216HW,2013-06-26 10:12:00,
2013-06-26 06:17:00,66.2,60.9,29.88,ENE,68,0.0,0.0,83,0.00,,,0.21,WUHU216HW,2013-06-26 10:17:00,
2013-06-26 06:22:00,66.2,60.9,29.88,ENE,68,0.0,0.4,83,0.00,,,0.21,WUHU216HW,2013-06-26 10:22:00,
2013-06-26 06:27:00,66.2,60.9,29.88,ENE,68,0.0,0.4,83,0.00,,,0.21,WUHU216HW,2013-06-26 10:27:00,
2013-06-26 06:32:00,66.2,60.9,29.88,ENE,68,0.0,0.0,83,0.00,,,0.21,WUHU216HW,2013-06-26 10:32:00,
2013-06-26 06:37:00,66.2,60.9,29.88,ENE,68,0.0,0.0,83,0.00,,,0.21,WUHU216HW,2013-06-26 10:37:00,
2013-06-26 06:42:00,66.2,60.9,29.88,ENE,68,0.0,0.0,83,0.00,,,0.21,WUHU216HW,2013-06-26 10:42:00,
2013-06-26 06:47:00,66.2,60.9,29.88,ENE,68,0.0,0.0,83,0.00,,,0.21,WUHU216HW,2013-06-26 10:47:00,
2013-06-26 06:52:00,66.2,60.9,29.88,ENE,68,0.0,0.0,83,0.00,,,0.21,WUHU216HW,2013-06-26 10:52:00,
2013-06-26 06:57:00,66.4,61.1,29.88,ENE,68,0.0,0.0,83,0.00,,,0.21,WUHU216HW,2013-06-26 10:57:00,
2013-06-26 07:02:00,66.4,61.1,29.89,ENE,68,0.0,0.0,83,0.00,,,0.21,WUHU216HW,2013-06-26 11:02:00,
2013-06-26 07:07:00,66.4,61.1,29.90,ENE,68,0.0,0.0,83,0.00,,,0.21,WUHU216HW,2013-06-26 11:07:00,
2013-06-26 07:12:00,66.4,61.1,29.90,East,90,0.0,0.0,83,0.00,,,0.21,WUHU216HW,2013-06-26 11:12:00,
2013-06-26 07:17:00,66.4,61.1,29.89,East,90,0.0,0.0,83,0.00,,,0.21,WUHU216HW,2013-06-26 11:17:00,
2013-06-26 07:22:00,66.4,61.1,29.89,East,90,0.0,0.0,83,0.00,,,0.21,WUHU216HW,2013-06-26 11:22:00,
2013-06-26 07:27:00,66.6,61.3,29.89,East,90,0.0,0.0,83,0.00,,,0.21,WUHU216HW,2013-06-26 11:27:00,
2013-06-26 07:32:00,66.6,61.3,29.89,East,90,0.0,0.0,83,0.00,,,0.21,WUHU216HW,2013-06-26 11:32:00,
2013-06-26 07:37:00,66.6,61.3,29.89,East,90,0.0,0.0,83,0.00,,,0.21,WUHU216HW,2013-06-26 11:37:00,
2013-06-26 07:42:00,66.6,61.3,29.89,East,90,0.0,0.0,83,0.00,,,0.21,WUHU216HW,2013-06-26 11:42:00,
2013-06-26 07:47:00,66.6,61.3,29.88,East,90,0.0,0.0,83,0.00,,,0.21,WUHU216HW,2013-06-26 11:47:00,
2013-06-26 07:52:00,66.8,61.5,29.89,SE,135,0.4,0.4,83,0.00,,,0.21,WUHU216HW,2013-06-26 11:52:00,
2013-06-26 07:57:00,67.0,61.3,29.89,South,180,0.0,0.4,82,0.00,,,0.21,WUHU216HW,2013-06-26 11:57:00,
2013-06-26 08:02:00,67.0,61.3,29.89,South,180,0.4,0.4,82,0.00,,,0.21,WUHU216HW,2013-06-26 12:02:00,
2013-06-26 08:07:00,67.1,61.5,29.89,WSW,248,0.2,0.4,82,0.00,,,0.21,WUHU216HW,2013-06-26 12:07:00,
2013-06-26 08:12:00,67.3,61.7,29.89,SW,225,0.2,0.4,82,0.00,,,0.21,WUHU216HW,2013-06-26 12:12:00,
2013-06-26 08:17:00,67.5,61.8,29.89,SW,225,0.4,0.4,82,0.00,,,0.21,WUHU216HW,2013-06-26 12:17:00,
2013-06-26 08:22:00,67.5,61.8,29.90,North,0,0.0,0.4,82,0.00,,,0.21,WUHU216HW,2013-06-26 12:22:00,
2013-06-26 08:27:00,67.7,62.0,29.90,SW,225,0.0,0.4,82,0.00,,,0.21,WUHU216HW,2013-06-26 12:27:00,
2013-06-26 08:32:00,67.9,62.2,29.90,WSW,248,0.4,0.4,82,0.00,,,0.21,WUHU216HW,2013-06-26 12:32:00,
2013-06-26 08:37:00,67.9,62.2,29.91,WSW,248,0.7,0.7,82,0.00,,,0.21,WUHU216HW,2013-06-26 12:37:00,
2013-06-26 08:42:00,68.2,62.6,29.90,SW,225,0.4,1.3,82,0.00,,,0.21,WUHU216HW,2013-06-26 12:42:00,
2013-06-26 08:47:00,68.4,62.7,29.91,WSW,248,0.4,1.3,82,0.00,,,0.21,WUHU216HW,2013-06-26 12:47:00,
2013-06-26 08:52:00,68.8,63.1,29.91,WSW,248,0.4,0.9,82,0.00,,,0.21,WUHU216HW,2013-06-26 12:52:00,
2013-06-26 08:57:00,68.9,63.2,29.91,SW,225,0.9,1.1,82,0.00,,,0.21,WUHU216HW,2013-06-26 12:57:00,
2013-06-26 09:02:00,69.1,63.4,29.91,WSW,248,1.3,1.3,82,0.00,,,0.21,WUHU216HW,2013-06-26 13:02:00,
2013-06-26 09:07:00,69.1,63.4,29.91,SW,225,0.2,1.3,82,0.00,,,0.21,WUHU216HW,2013-06-26 13:07:00,
2013-06-26 09:12:00,69.3,63.5,29.91,SW,225,0.9,0.9,82,0.00,,,0.21,WUHU216HW,2013-06-26 13:12:00,
2013-06-26 09:17:00,69.3,63.5,29.91,SSW,203,0.0,0.9,82,0.00,,,0.21,WUHU216HW,2013-06-26 13:17:00,
2013-06-26 09:22:00,69.5,63.7,29.91,SW,225,0.9,0.9,82,0.00,,,0.21,WUHU216HW,2013-06-26 13:22:00,
2013-06-26 09:27:00,69.5,63.7,29.91,NW,315,0.7,0.9,82,0.00,,,0.21,WUHU216HW,2013-06-26 13:27:00,
2013-06-26 09:32:00,69.5,63.7,29.91,SW,225,0.7,0.9,82,0.00,,,0.21,WUHU216HW,2013-06-26 13:32:00,
2013-06-26 09:37:00,69.5,63.7,29.91,West,270,0.0,1.6,82,0.00,,,0.21,WUHU216HW,2013-06-26 13:37:00,
2013-06-26 09:42:00,69.8,64.1,29.91,SSW,203,0.7,1.6,82,0.00,,,0.21,WUHU216HW,2013-06-26 13:42:00,
2013-06-26 09:47:00,69.8,64.1,29.90,ESE,113,0.0,1.6,82,0.00,,,0.21,WUHU216HW,2013-06-26 13:47:00,
2013-06-26 09:52:00,70.0,64.3,29.90,South,180,0.7,1.6,82,0.00,,,0.21,WUHU216HW,2013-06-26 13:52:00,
2013-06-26 09:57:00,70.4,64.6,29.90,South,180,0.0,1.3,82,0.00,,,0.21,WUHU216HW,2013-06-26 13:57:00,
2013-06-26 10:02:00,70.6,64.8,29.90,SW,225,0.4,1.1,82,0.00,,,0.21,WUHU216HW,2013-06-26 14:02:00,
2013-06-26 10:07:00,70.6,64.8,29.90,NW,315,0.0,1.1,82,0.00,,,0.21,WUHU216HW,2013-06-26 14:07:00,
2013-06-26 10:12:00,70.7,65.0,29.90,SW,225,1.1,1.1,82,0.00,,,0.21,WUHU216HW,2013-06-26 14:12:00,
2013-06-26 10:17:00,70.9,65.2,29.90,SSW,203,0.7,1.1,82,0.00,,,0.21,WUHU216HW,2013-06-26 14:17:00,
2013-06-26 10:22:00,71.1,65.4,29.90,SSW,203,0.4,1.1,82,0.00,,,0.21,WUHU216HW,2013-06-26 14:22:00,
2013-06-26 10:27:00,71.3,65.5,29.89,NW,315,0.4,0.7,82,0.00,,,0.21,WUHU216HW,2013-06-26 14:27:00,
2013-06-26 10:32:00,71.6,65.9,29.89,SW,225,0.2,0.9,82,0.00,,,0.21,WUHU216HW,2013-06-26 14:32:00,
2013-06-26 10:37:00,71.8,66.1,29.89,WSW,248,0.4,0.9,82,0.00,,,0.21,WUHU216HW,2013-06-26 14:37:00,
2013-06-26 10:42:00,72.0,66.3,29.90,WNW,293,0.0,0.9,82,0.00,,,0.21,WUHU216HW,2013-06-26 14:42:00,
2013-06-26 10:47:00,71.8,66.1,29.90,NW,315,0.2,0.9,82,0.00,,,0.21,WUHU216HW,2013-06-26 14:47:00,
2013-06-26 10:52:00,71.8,66.1,29.91,NW,315,1.1,1.1,82,0.00,,,0.21,WUHU216HW,2013-06-26 14:52:00,
2013-06-26 10:57:00,72.0,66.3,29.91,SSW,203,0.7,1.1,82,0.00,,,0.21,WUHU216HW,2013-06-26 14:57:00,
2013-06-26 11:02:00,72.2,66.4,29.91,WSW,248,0.7,1.1,82,0.00,,,0.21,WUHU216HW,2013-06-26 15:02:00,
2013-06-26 11:07:00,72.4,66.3,29.91,North,0,0.4,1.1,81,0.00,,,0.21,WUHU216HW,2013-06-26 15:07:00,
2013-06-26 11:12:00,72.4,66.3,29.91,NW,315,0.4,1.1,81,0.00,,,0.21,WUHU216HW,2013-06-26 15:12:00,
2013-06-26 11:17:00,72.4,66.3,29.91,NW,315,0.7,1.1,81,0.00,,,0.21,WUHU216HW,2013-06-26 15:17:00,
2013-06-26 11:22:00,72.7,67.0,29.91,SW,225,0.9,1.1,82,0.00,,,0.21,WUHU216HW,2013-06-26 15:22:00,
2013-06-26 11:27:00,73.1,67.3,29.91,NW,315,0.4,1.3,82,0.00,,,0.21,WUHU216HW,2013-06-26 15:27:00,
2013-06-26 11:32:00,73.1,67.3,29.91,SE,135,1.1,1.3,82,0.00,,,0.21,WUHU216HW,2013-06-26 15:32:00,
2013-06-26 11:37:00,73.4,67.3,29.91,SW,225,0.4,1.3,81,0.00,,,0.21,WUHU216HW,2013-06-26 15:37:00,
2013-06-26 11:42:00,73.4,67.3,29.91,NW,315,1.1,1.1,81,0.00,,,0.21,WUHU216HW,2013-06-26 15:42:00,
2013-06-26 11:47:00,73.8,67.7,29.91,NW,315,0.4,1.3,81,0.00,,,0.21,WUHU216HW,2013-06-26 15:47:00,
2013-06-26 11:52:00,73.8,67.7,29.91,NNW,338,1.3,1.3,81,0.00,,,0.21,WUHU216HW,2013-06-26 15:52:00,
2013-06-26 11:57:00,73.8,67.7,29.91,ESE,113,1.6,1.8,81,0.00,,,0.21,WUHU216HW,2013-06-26 15:57:00,
2013-06-26 12:02:00,73.8,67.7,29.91,West,270,0.7,1.8,81,0.00,,,0.21,WUHU216HW,2013-06-26 16:02:00,
2013-06-26 12:07:00,73.6,67.5,29.91,SW,225,0.0,1.6,81,0.00,,,0.21,WUHU216HW,2013-06-26 16:07:00,
2013-06-26 12:12:00,73.6,67.5,29.91,North,0,0.4,1.1,81,0.00,,,0.21,WUHU216HW,2013-06-26 16:12:00,
2013-06-26 12:17:00,73.6,67.5,29.91,NNW,338,0.4,0.9,81,0.00,,,0.21,WUHU216HW,2013-06-26 16:17:00,
2013-06-26 12:22:00,73.6,67.5,29.91,WSW,248,0.4,1.1,81,0.00,,,0.21,WUHU216HW,2013-06-26 16:22:00,
2013-06-26 12:27:00,73.8,67.7,29.91,NW,315,0.4,1.1,81,0.00,,,0.21,WUHU216HW,2013-06-26 16:27:00,
2013-06-26 12:32:00,73.8,67.7,29.91,North,0,1.1,1.1,81,0.00,,,0.21,WUHU216HW,2013-06-26 16:32:00,
2013-06-26 12:37:00,73.8,67.7,29.91,NNW,338,0.9,1.8,81,0.00,,,0.21,WUHU216HW,2013-06-26 16:37:00,
2013-06-26 12:42:00,73.6,67.5,29.91,SSW,203,1.8,1.8,81,0.00,,,0.21,WUHU216HW,2013-06-26 16:42:00,
2013-06-26 12:47:00,74.0,67.9,29.90,NW,315,0.9,3.4,81,0.00,,,0.21,WUHU216HW,2013-06-26 16:47:00,
2013-06-26 12:52:00,74.7,68.6,29.90,North,0,0.7,3.4,81,0.00,,,0.21,WUHU216HW,2013-06-26 16:52:00,
2013-06-26 12:57:00,75.2,68.8,29.90,WSW,248,0.4,1.8,80,0.00,,,0.21,WUHU216HW,2013-06-26 16:57:00,
2013-06-26 13:02:00,75.8,69.2,29.90,SW,225,0.4,1.8,80,0.00,,,0.21,WUHU216HW,2013-06-26 17:02:00,
2013-06-26 13:07:00,76.3,69.8,29.90,WNW,293,1.1,1.1,80,0.00,,,0.21,WUHU216HW,2013-06-26 17:07:00,
2013-06-26 13:12:00,76.9,69.9,29.90,SE,135,1.1,1.3,79,0.00,,,0.21,WUHU216HW,2013-06-26 17:12:00,
2013-06-26 13:17:00,77.0,69.7,29.90,NW,315,0.7,1.6,78,0.00,,,0.21,WUHU216HW,2013-06-26 17:17:00,
2013-06-26 13:22:00,77.0,69.2,29.89,WSW,248,0.7,1.6,77,0.00,,,0.21,WUHU216HW,2013-06-26 17:22:00,
2013-06-26 13:27:00,77.0,69.2,29.88,WNW,293,0.4,1.6,77,0.00,,,0.21,WUHU216HW,2013-06-26 17:27:00,
2013-06-26 13:32:00,77.0,69.2,29.88,WSW,248,0.9,1.1,77,0.00,,,0.21,WUHU216HW,2013-06-26 17:32:00,
2013-06-26 13:37:00,77.0,68.9,29.88,ESE,113,0.9,1.6,76,0.00,,,0.21,WUHU216HW,2013-06-26 17:37:00,
2013-06-26 13:42:00,77.0,68.9,29.87,ESE,113,1.3,2.5,76,0.00,,,0.21,WUHU216HW,2013-06-26 17:42:00,
2013-06-26 13:47:00,77.0,68.9,29.87,West,270,0.7,2.5,76,0.00,,,0.21,WUHU216HW,2013-06-26 17:47:00,
2013-06-26 13:52:00,76.9,68.7,29.87,NW,315,0.0,1.1,76,0.00,,,0.21,WUHU216HW,2013-06-26 17:52:00,
2013-06-26 13:57:00,77.0,68.9,29.86,ESE,113,0.9,2.0,76,0.00,,,0.21,WUHU216HW,2013-06-26 17:57:00,
2013-06-26 14:02:00,77.6,69.4,29.86,ESE,113,0.4,2.0,76,0.00,,,0.21,WUHU216HW,2013-06-26 18:02:00,
2013-06-26 14:07:00,77.8,69.6,29.86,South,180,0.4,1.8,76,0.00,,,0.21,WUHU216HW,2013-06-26 18:07:00,
2013-06-26 14:12:00,77.8,69.2,29.86,ESE,113,2.2,2.2,75,0.00,,,0.21,WUHU216HW,2013-06-26 18:12:00,
2013-06-26 14:17:00,77.8,69.2,29.87,ESE,113,2.0,2.2,75,0.00,,,0.21,WUHU216HW,2013-06-26 18:17:00,
2013-06-26 14:22:00,77.9,69.3,29.87,ESE,113,2.2,3.4,75,0.00,,,0.21,WUHU216HW,2013-06-26 18:22:00,
2013-06-26 14:27:00,77.9,69.3,29.87,West,270,0.7,3.4,75,0.00,,,0.21,WUHU216HW,2013-06-26 18:27:00,
2013-06-26 14:32:00,77.9,69.3,29.87,East,90,0.4,1.3,75,0.00,,,0.21,WUHU216HW,2013-06-26 18:32:00,
2013-06-26 14:37:00,78.1,69.5,29.87,ESE,113,0.7,1.3,75,0.00,,,0.21,WUHU216HW,2013-06-26 18:37:00,
2013-06-26 14:42:00,78.5,69.8,29.87,ENE,68,1.1,2.7,75,0.00,,,0.21,WUHU216HW,2013-06-26 18:42:00,
2013-06-26 14:47:00,79.2,70.6,29.87,SE,135,2.0,2.7,75,0.00,,,0.21,WUHU216HW,2013-06-26 18:47:00,
2013-06-26 14:52:00,79.6,70.6,29.86,ESE,113,1.8,2.9,74,0.00,,,0.21,WUHU216HW,2013-06-26 18:52:00,
2013-06-26 14:57:00,79.6,69.8,29.86,ESE,113,1.8,2.9,72,0.00,,,0.21,WUHU216HW,2013-06-26 18:57:00,
2013-06-26 15:02:00,79.6,70.1,29.85,SSW,203,0.4,2.7,73,0.00,,,0.21,WUHU216HW,2013-06-26 19:02:00,
2013-06-26 15:07:00,79.6,70.1,29.86,ESE,113,1.1,2.7,73,0.00,,,0.21,WUHU216HW,2013-06-26 19:07:00,
2013-06-26 15:12:00,79.6,70.1,29.86,East,90,1.1,1.6,73,0.00,,,0.21,WUHU216HW,2013-06-26 19:12:00,
2013-06-26 15:17:00,79.6,70.1,29.86,ESE,113,0.0,1.8,73,0.00,,,0.21,WUHU216HW,2013-06-26 19:17:00,
2013-06-26 15:22:00,79.2,70.2,29.86,ESE,113,0.0,1.8,74,0.00,,,0.21,WUHU216HW,2013-06-26 19:22:00,
2013-06-26 15:27:00,79.0,70.0,29.86,SW,225,0.0,0.7,74,0.00,,,0.21,WUHU216HW,2013-06-26 19:27:00,
2013-06-26 15:32:00,79.2,70.2,29.87,WSW,248,0.4,0.9,74,0.00,,,0.21,WUHU216HW,2013-06-26 19:32:00,
2013-06-26 15:37:00,79.0,70.0,29.87,WSW,248,0.2,0.9,74,0.00,,,0.21,WUHU216HW,2013-06-26 19:37:00,
2013-06-26 15:42:00,78.8,69.9,29.86,SE,135,0.4,0.7,74,0.00,,,0.21,WUHU216HW,2013-06-26 19:42:00,
2013-06-26 15:47:00,79.0,70.0,29.86,WSW,248,0.9,0.9,74,0.00,,,0.21,WUHU216HW,2013-06-26 19:47:00,
2013-06-26 15:52:00,79.4,69.9,29.86,SE,135,0.2,1.1,73,0.00,,,0.21,WUHU216HW,2013-06-26 19:52:00,
2013-06-26 15:57:00,79.6,70.1,29.85,SE,135,1.3,1.3,73,0.00,,,0.21,WUHU216HW,2013-06-26 19:57:00,
2013-06-26 16:02:00,79.2,69.8,29.85,SE,135,0.2,1.3,73,0.00,,,0.21,WUHU216HW,2013-06-26 20:02:00,
2013-06-26 16:07:00,79.2,69.8,29.85,SE,135,0.4,1.1,73,0.00,,,0.21,WUHU216HW,2013-06-26 20:07:00,
2013-06-26 16:12:00,79.0,70.0,29.85,South,180,0.4,1.1,74,0.00,,,0.21,WUHU216HW,2013-06-26 20:12:00,
2013-06-26 16:17:00,78.8,69.9,29.85,SSE,158,0.0,1.1,74,0.00,,,0.21,WUHU216HW,2013-06-26 20:17:00,
2013-06-26 16:22:00,78.8,69.9,29.85,SE,135,0.9,1.1,74,0.00,,,0.21,WUHU216HW,2013-06-26 20:22:00,
2013-06-26 16:27:00,78.8,69.9,29.85,SE,135,0.7,1.1,74,0.00,,,0.21,WUHU216HW,2013-06-26 20:27:00,
2013-06-26 16:32:00,78.8,69.9,29.84,SSW,203,0.4,1.1,74,0.00,,,0.21,WUHU216HW,2013-06-26 20:32:00,
2013-06-26 16:37:00,78.7,69.7,29.84,WSW,248,0.0,1.1,74,0.00,,,0.21,WUHU216HW,2013-06-26 20:37:00,
2013-06-26 16:42:00,79.0,70.0,29.84,SSE,158,2.0,2.0,74,0.00,,,0.21,WUHU216HW,2013-06-26 20:42:00,
2013-06-26 16:47:00,79.0,70.0,29.85,SE,135,1.3,2.0,74,0.00,,,0.21,WUHU216HW,2013-06-26 20:47:00,
2013-06-26 16:52:00,79.0,70.0,29.85,SW,225,1.1,2.0,74,0.00,,,0.21,WUHU216HW,2013-06-26 20:52:00,
2013-06-26 16:57:00,79.0,70.0,29.85,SSW,203,0.2,1.1,74,0.00,,,0.21,WUHU216HW,2013-06-26 20:57:00,
2013-06-26 17:02:00,79.4,70.7,29.85,SW,225,1.1,1.1,75,0.00,,,0.21,WUHU216HW,2013-06-26 21:02:00,
2013-06-26 17:07:00,79.6,70.6,29.85,WSW,248,1.1,1.8,74,0.00,,,0.21,WUHU216HW,2013-06-26 21:07:00,
2013-06-26 17:12:00,79.9,70.9,29.85,SE,135,0.7,1.8,74,0.00,,,0.21,WUHU216HW,2013-06-26 21:12:00,
2013-06-26 17:17:00,79.9,70.5,29.84,SSE,158,0.4,1.3,73,0.00,,,0.21,WUHU216HW,2013-06-26 21:17:00,
2013-06-26 17:22:00,79.7,70.3,29.84,SW,225,0.4,1.3,73,0.00,,,0.21,WUHU216HW,2013-06-26 21:22:00,
2013-06-26 17:27:00,79.6,70.1,29.83,SSE,158,0.4,1.3,73,0.00,,,0.21,WUHU216HW,2013-06-26 21:27:00,
2013-06-26 17:32:00,79.6,70.1,29.83,SW,225,0.4,1.3,73,0.00,,,0.21,WUHU216HW,2013-06-26 21:32:00,
2013-06-26 17:37:00,79.6,70.1,29.84,West,270,0.2,1.3,73,0.00,,,0.21,WUHU216HW,2013-06-26 21:37:00,
2013-06-26 17:42:00,79.6,70.1,29.84,SE,135,0.7,1.3,73,0.00,,,0.21,WUHU216HW,2013-06-26 21:42:00,
2013-06-26 17:47:00,79.7,70.3,29.83,SSW,203,0.7,2.0,73,0.00,,,0.21,WUHU216HW,2013-06-26 21:47:00,
2013-06-26 17:52:00,79.7,70.3,29.83,SSE,158,0.4,2.0,73,0.00,,,0.21,WUHU216HW,2013-06-26 21:52:00,
2013-06-26 17:57:00,79.9,70.5,29.83,SE,135,0.0,1.8,73,0.00,,,0.21,WUHU216HW,2013-06-26 21:57:00,
2013-06-26 18:02:00,79.9,70.1,29.83,SSE,158,1.8,2.2,72,0.00,,,0.21,WUHU216HW,2013-06-26 22:02:00,
2013-06-26 18:07:00,79.9,69.7,29.82,SE,135,0.2,2.2,71,0.00,,,0.21,WUHU216HW,2013-06-26 22:07:00,
2013-06-26 18:12:00,79.7,69.9,29.82,ESE,113,0.2,1.1,72,0.00,,,0.21,WUHU216HW,2013-06-26 22:12:00,
2013-06-26 18:17:00,79.7,69.5,29.82,ESE,113,0.9,2.9,71,0.00,,,0.21,WUHU216HW,2013-06-26 22:17:00,
2013-06-26 18:22:00,79.7,69.1,29.82,SE,135,0.9,2.9,70,0.00,,,0.21,WUHU216HW,2013-06-26 22:22:00,
2013-06-26 18:27:00,79.7,68.7,29.82,SE,135,0.0,1.3,69,0.00,,,0.21,WUHU216HW,2013-06-26 22:27:00,
2013-06-26 18:32:00,79.6,67.6,29.81,SE,135,0.4,0.9,67,0.00,,,0.21,WUHU216HW,2013-06-26 22:32:00,
2013-06-26 18:37:00,79.6,68.0,29.81,ESE,113,0.4,1.6,68,0.00,,,0.21,WUHU216HW,2013-06-26 22:37:00,
2013-06-26 18:42:00,79.6,68.0,29.81,WSW,248,0.7,1.6,68,0.00,,,0.21,WUHU216HW,2013-06-26 22:42:00,
2013-06-26 18:47:00,79.4,67.9,29.81,SSE,158,0.7,0.9,68,0.00,,,0.21,WUHU216HW,2013-06-26 22:47:00,
2013-06-26 18:52:00,79.2,68.1,29.81,SSE,158,0.0,0.9,69,0.00,,,0.21,WUHU216HW,2013-06-26 22:52:00,
2013-06-26 18:57:00,79.0,68.0,29.81,SSW,203,0.4,0.9,69,0.00,,,0.21,WUHU216HW,2013-06-26 22:57:00,
2013-06-26 19:02:00,78.8,67.8,29.81,SE,135,0.4,0.4,69,0.00,,,0.21,WUHU216HW,2013-06-26 23:02:00,
2013-06-26 19:07:00,79.0,68.4,29.81,SE,135,0.0,1.1,70,0.00,,,0.21,WUHU216HW,2013-06-26 23:07:00,
2013-06-26 19:12:00,78.8,68.2,29.80,SSW,203,0.4,1.1,70,0.00,,,0.21,WUHU216HW,2013-06-26 23:12:00,
2013-06-26 19:17:00,78.8,68.6,29.81,ESE,113,0.4,1.8,71,0.00,,,0.21,WUHU216HW,2013-06-26 23:17:00,
2013-06-26 19:22:00,78.8,68.2,29.80,ESE,113,0.0,1.8,70,0.00,,,0.21,WUHU216HW,2013-06-26 23:22:00,
2013-06-26 19:27:00,78.8,68.2,29.80,WSW,248,0.0,0.9,70,0.00,,,0.21,WUHU216HW,2013-06-26 23:27:00,
2013-06-26 19:32:00,78.7,68.5,29.81,WSW,248,0.0,0.9,71,0.00,,,0.21,WUHU216HW,2013-06-26 23:32:00,
2013-06-26 19:37:00,78.5,68.3,29.81,WSW,248,0.0,0.7,71,0.00,,,0.21,WUHU216HW,2013-06-26 23:37:00,
2013-06-26 19:42:00,78.5,68.3,29.81,SSE,158,0.9,0.9,71,0.00,,,0.21,WUHU216HW,2013-06-26 23:42:00,
2013-06-26 19:47:00,78.3,68.1,29.81,SE,135,0.2,0.9,71,0.00,,,0.21,WUHU216HW,2013-06-26 23:47:00,
2013-06-26 19:52:00,78.1,68.3,29.81,SE,135,0.2,0.4,72,0.00,,,0.21,WUHU216HW,2013-06-26 23:52:00,
2013-06-26 19:57:00,78.1,68.3,29.82,ESE,113,0.0,0.4,72,0.00,,,0.21,WUHU216HW,2013-06-26 23:57:00,
2013-06-26 20:02:00,78.1,68.3,29.81,ESE,113,0.2,0.7,72,0.00,,,0.21,WUHU216HW,2013-06-27 00:02:00,
2013-06-26 20:07:00,77.9,68.2,29.81,SE,135,0.4,0.7,72,0.00,,,0.21,WUHU216HW,2013-06-27 00:07:00,
2013-06-26 20:12:00,78.1,68.3,29.82,SE,135,0.4,0.4,72,0.00,,,0.21,WUHU216HW,2013-06-27 00:12:00,
2013-06-26 20:17:00,78.1,68.3,29.81,SE,135,1.1,1.1,72,0.00,,,0.21,WUHU216HW,2013-06-27 00:17:00,
2013-06-26 20:22:00,77.9,68.2,29.81,SE,135,1.1,1.1,72,0.00,,,0.21,WUHU216HW,2013-06-27 00:22:00,
2013-06-26 20:27:00,77.9,68.2,29.81,SE,135,0.4,1.1,72,0.00,,,0.21,WUHU216HW,2013-06-27 00:27:00,
2013-06-26 20:32:00,77.8,68.1,29.81,SE,135,0.0,0.9,72,0.00,,,0.21,WUHU216HW,2013-06-27 00:32:00,
2013-06-26 20:37:00,77.6,68.2,29.81,SE,135,0.2,0.4,73,0.00,,,0.21,WUHU216HW,2013-06-27 00:37:00,
2013-06-26 20:42:00,77.4,68.0,29.81,SSE,158,0.0,0.4,73,0.00,,,0.21,WUHU216HW,2013-06-27 00:42:00,
2013-06-26 20:47:00,77.4,68.0,29.81,SSE,158,0.0,0.0,73,0.00,,,0.21,WUHU216HW,2013-06-27 00:47:00,
2013-06-26 20:52:00,77.2,67.9,29.82,SSE,158,0.0,0.4,73,0.00,,,0.21,WUHU216HW,2013-06-27 00:52:00,
2013-06-26 20:57:00,77.0,68.1,29.81,SSE,158,0.0,0.4,74,0.00,,,0.21,WUHU216HW,2013-06-27 00:57:00,
2013-06-26 21:02:00,76.9,68.0,29.81,SSE,158,0.0,0.2,74,0.00,,,0.21,WUHU216HW,2013-06-27 01:02:00,
2013-06-26 21:07:00,76.7,67.8,29.82,SSE,158,0.0,0.0,74,0.00,,,0.21,WUHU216HW,2013-06-27 01:07:00,
2013-06-26 21:12:00,76.5,68.0,29.83,SSW,203,1.3,1.3,75,0.00,,,0.21,WUHU216HW,2013-06-27 01:12:00,
2013-06-26 21:17:00,75.6,66.3,29.84,West,270,1.8,3.4,73,0.00,,,0.21,WUHU216HW,2013-06-27 01:17:00,
2013-06-26 21:22:00,74.7,66.2,29.84,South,180,1.1,3.4,75,0.00,,,0.21,WUHU216HW,2013-06-27 01:22:00,
2013-06-26 21:27:00,73.8,65.8,29.84,WSW,248,0.4,3.4,76,0.00,,,0.21,WUHU216HW,2013-06-27 01:27:00,
2013-06-26 21:32:00,73.3,65.6,29.84,East,90,2.0,2.0,77,0.05,,,0.23,WUHU216HW,2013-06-27 01:32:00,
2013-06-26 21:37:00,72.7,65.5,29.84,North,0,0.0,2.0,78,0.25,,,0.47,WUHU216HW,2013-06-27 01:37:00,
2013-06-26 21:42:00,72.0,64.8,29.84,North,0,0.0,2.0,78,0.39,,,0.58,WUHU216HW,2013-06-27 01:42:00,
2013-06-26 21:47:00,71.6,64.8,29.84,North,0,0.0,0.0,79,0.40,,,0.61,WUHU216HW,2013-06-27 01:47:00,
2013-06-26 21:52:00,71.3,64.5,29.83,North,0,0.0,0.0,79,0.41,,,0.62,WUHU216HW,2013-06-27 01:52:00,
2013-06-26 21:57:00,70.9,64.4,29.83,North,0,0.0,0.0,80,0.46,,,0.66,WUHU216HW,2013-06-27 01:57:00,
2013-06-26 22:02:00,70.9,64.4,29.82,North,0,0.0,0.0,80,0.48,,,0.68,WUHU216HW,2013-06-27 02:02:00,
2013-06-26 22:07:00,70.7,64.3,29.81,North,0,0.0,0.0,80,0.49,,,0.70,WUHU216HW,2013-06-27 02:07:00,
2013-06-26 22:12:00,70.6,64.1,29.81,North,0,0.0,0.0,80,0.50,,,0.71,WUHU216HW,2013-06-27 02:12:00,
2013-06-26 22:17:00,70.6,64.1,29.80,North,0,0.0,0.0,80,0.51,,,0.72,WUHU216HW,2013-06-27 02:17:00,
2013-06-26 22:22:00,70.4,63.9,29.79,North,0,0.0,0.0,80,0.52,,,0.73,WUHU216HW,2013-06-27 02:22:00,
2013-06-26 22:27:00,70.4,63.9,29.79,North,0,0.0,0.0,80,0.53,,,0.74,WUHU216HW,2013-06-27 02:27:00,
2013-06-26 22:32:00,70.2,64.1,29.78,North,0,0.0,0.0,81,0.28,,,0.74,WUHU216HW,2013-06-27 02:32:00,
2013-06-26 22:37:00,70.2,64.1,29.78,North,0,0.0,0.0,81,0.17,,,0.75,WUHU216HW,2013-06-27 02:37:00,
2013-06-26 22:42:00,70.2,64.1,29.78,North,0,0.0,0.0,81,0.15,,,0.75,WUHU216HW,2013-06-27 02:42:00,
2013-06-26 22:47:00,70.2,64.1,29.78,North,0,0.0,0.0,81,0.14,,,0.75,WUHU216HW,2013-06-27 02:47:00,
2013-06-26 22:52:00,70.2,64.1,29.79,North,0,0.0,0.0,81,0.09,,,0.75,WUHU216HW,2013-06-27 02:52:00,
2013-06-26 22:57:00,70.4,64.3,29.79,North,0,0.0,0.0,81,0.07,,,0.75,WUHU216HW,2013-06-27 02:57:00,
2013-06-26 23:02:00,70.4,64.3,29.78,North,0,0.0,0.0,81,0.06,,,0.75,WUHU216HW,2013-06-27 03:02:00,
2013-06-26 23:07:00,70.4,64.3,29.78,North,0,0.0,0.0,81,0.06,,,0.77,WUHU216HW,2013-06-27 03:07:00,
2013-06-26 23:12:00,70.4,64.3,29.78,North,0,0.0,0.0,81,0.04,,,0.77,WUHU216HW,2013-06-27 03:12:00,
2013-06-26 23:17:00,70.2,64.1,29.77,North,0,0.0,0.0,81,0.03,,,0.77,WUHU216HW,2013-06-27 03:17:00,
2013-06-26 23:22:00,70.0,64.3,29.77,North,0,0.0,0.0,82,0.02,,,0.77,WUHU216HW,2013-06-27 03:22:00,
2013-06-26 23:27:00,70.0,64.3,29.78,North,0,0.0,0.0,82,0.02,,,0.77,WUHU216HW,2013-06-27 03:27:00,
2013-06-26 23:32:00,70.0,64.3,29.78,North,0,0.0,0.0,82,0.01,,,0.77,WUHU216HW,2013-06-27 03:32:00,
2013-06-26 23:37:00,70.0,64.3,29.78,North,0,0.0,0.0,82,0.01,,,0.77,WUHU216HW,2013-06-27 03:37:00,
2013-06-26 23:42:00,70.0,64.3,29.77,North,0,0.0,0.0,82,0.01,,,0.77,WUHU216HW,2013-06-27 03:42:00,
2013-06-26 23:47:00,70.0,64.3,29.78,North,0,0.0,0.0,82,0.01,,,0.77,WUHU216HW,2013-06-27 03:47:00,
2013-06-26 23:52:00,70.0,64.3,29.78,North,0,0.0,0.0,82,0.01,,,0.77,WUHU216HW,2013-06-27 03:52:00,
2013-06-26 23:57:00,70.0,64.3,29.79,North,0,0.0,0.0,82,0.01,,,0.77,WUHU216HW,2013-06-27 03:57:00,